Terminal Aerodrome Forecast
Issued by NWS Sioux Falls, SD

Home | Current Version | Previous Version | Text Only | Print | Product List | Glossary Off
Versions: 1 2 3 4 5 6 7 8 9 10 11 12 13 14 15 16 17 18 19 20 21 22 23 24 25 26 27 28 29 30 31 32

000
FTUS43 KFSD 291720
TAFSUX
TAF
KSUX 291720Z 2918/3018 27009KT P6SM BKN025
     FM292100 32014G20KT P6SM BKN030
      TEMPO 2921/2923 6SM TSRA OVC025CB
     FM292300 35018G25KT P6SM BKN020
     FM300800 36014KT P6SM SCT025 BKN120
     FM301400 36012KT P6SM SKC=

USA.gov is the U.S. government's official web portal to all federal, state and local government web resources and services.